sensor_id;sensor_type;location;lat;lon;timestamp;pressure;altitude;pressure_sealevel;temperature;humidity
40490;BME280;26196;52.302;10.572;2023-04-27T00:00:17;100992.41;;;13.74;39.20
40490;BME280;26196;52.302;10.572;2023-04-27T00:04:18;100987.16;;;13.73;39.56
40490;BME280;26196;52.302;10.572;2023-04-27T00:08:19;100983.69;;;13.72;39.34
40490;BME280;26196;52.302;10.572;2023-04-27T00:12:19;100982.97;;;13.67;39.38
40490;BME280;26196;52.302;10.572;2023-04-27T00:16:54;100982.88;;;13.70;39.56
40490;BME280;26196;52.302;10.572;2023-04-27T00:20:55;100975.91;;;13.69;39.48
40490;BME280;26196;52.302;10.572;2023-04-27T00:24:55;100980.34;;;13.67;39.52
40490;BME280;26196;52.302;10.572;2023-04-27T00:33:30;100976.97;;;13.64;39.27
40490;BME280;26196;52.302;10.572;2023-04-27T00:37:31;100972.59;;;13.63;40.13
40490;BME280;26196;52.302;10.572;2023-04-27T00:41:31;100985.75;;;13.63;39.38
40490;BME280;26196;52.302;10.572;2023-04-27T00:46:09;100975.22;;;13.63;39.84
40490;BME280;26196;52.302;10.572;2023-04-27T00:50:10;100975.31;;;13.60;40.19
40490;BME280;26196;52.302;10.572;2023-04-27T00:54:12;100974.66;;;13.53;39.86
40490;BME280;26196;52.302;10.572;2023-04-27T00:58:47;100984.19;;;13.57;39.27
40490;BME280;26196;52.302;10.572;2023-04-27T01:02:48;100984.28;;;13.54;39.86
40490;BME280;26196;52.302;10.572;2023-04-27T01:06:50;100989.53;;;13.54;39.30
40490;BME280;26196;52.302;10.572;2023-04-27T01:10:50;100990.44;;;13.53;39.90
40490;BME280;26196;52.302;10.572;2023-04-27T01:14:51;100986.16;;;13.50;39.99
40490;BME280;26196;52.302;10.572;2023-04-27T01:18:51;100982.88;;;13.42;38.98
40490;BME280;26196;52.302;10.572;2023-04-27T01:23:28;100995.06;;;13.45;39.77
40490;BME280;26196;52.302;10.572;2023-04-27T01:27:29;100991.59;;;13.44;39.88
40490;BME280;26196;52.302;10.572;2023-04-27T01:31:29;100992.50;;;13.43;39.87
40490;BME280;26196;52.302;10.572;2023-04-27T01:44:39;100993.59;;;13.36;39.30
40490;BME280;26196;52.302;10.572;2023-04-27T01:49:17;100998.81;;;13.38;39.71
40490;BME280;26196;52.302;10.572;2023-04-27T01:53:17;101005.94;;;13.34;39.59
40490;BME280;26196;52.302;10.572;2023-04-27T01:57:17;101000.88;;;13.28;39.43
40490;BME280;26196;52.302;10.572;2023-04-27T02:01:18;101017.38;;;13.33;39.16
40490;BME280;26196;52.302;10.572;2023-04-27T02:05:19;101030.53;;;13.31;39.74
40490;BME280;26196;52.302;10.572;2023-04-27T02:09:19;101028.78;;;13.32;39.29
40490;BME280;26196;52.302;10.572;2023-04-27T02:13:20;101028.03;;;13.27;39.60
40490;BME280;26196;52.302;10.572;2023-04-27T02:17:20;101045.56;;;13.28;39.37
40490;BME280;26196;52.302;10.572;2023-04-27T02:21:58;101056.09;;;13.26;39.55
40490;BME280;26196;52.302;10.572;2023-04-27T02:25:58;101056.16;;;13.23;39.48
40490;BME280;26196;52.302;10.572;2023-04-27T02:29:58;101064.13;;;13.22;39.60
40490;BME280;26196;52.302;10.572;2023-04-27T02:33:58;101061.53;;;13.20;39.19
40490;BME280;26196;52.302;10.572;2023-04-27T02:37:59;101064.13;;;13.22;39.65
40490;BME280;26196;52.302;10.572;2023-04-27T02:42:00;101066.81;;;13.19;39.63
40490;BME280;26196;52.302;10.572;2023-04-27T02:46:35;101070.38;;;13.16;39.84
40490;BME280;26196;52.302;10.572;2023-04-27T02:50:40;101065.22;;;13.13;39.83
40490;BME280;26196;52.302;10.572;2023-04-27T02:54:40;101067.84;;;13.13;39.93
40490;BME280;26196;52.302;10.572;2023-04-27T02:58:41;101066.97;;;13.14;40.03
40490;BME280;26196;52.302;10.572;2023-04-27T03:02:42;101063.53;;;13.12;39.70
40490;BME280;26196;52.302;10.572;2023-04-27T03:07:16;101065.31;;;13.10;39.77
40490;BME280;26196;52.302;10.572;2023-04-27T03:11:17;101069.72;;;13.09;39.85
40490;BME280;26196;52.302;10.572;2023-04-27T03:15:17;101069.81;;;13.06;39.98
40490;BME280;26196;52.302;10.572;2023-04-27T03:24:14;101068.06;;;13.05;39.79
40490;BME280;26196;52.302;10.572;2023-04-27T03:32:52;101075.13;;;13.03;40.08
40490;BME280;26196;52.302;10.572;2023-04-27T03:37:26;101077.72;;;13.05;39.44
40490;BME280;26196;52.302;10.572;2023-04-27T03:41:27;101083.09;;;13.02;40.27
40490;BME280;26196;52.302;10.572;2023-04-27T03:45:27;101083.09;;;13.02;39.74
40490;BME280;26196;52.302;10.572;2023-04-27T03:49:27;101091.84;;;13.01;39.78
40490;BME280;26196;52.302;10.572;2023-04-27T03:53:28;101091.00;;;13.00;39.88
40490;BME280;26196;52.302;10.572;2023-04-27T03:57:28;101097.19;;;12.98;39.99
40490;BME280;26196;52.302;10.572;2023-04-27T04:01:28;101090.22;;;12.97;39.87
40490;BME280;26196;52.302;10.572;2023-04-27T04:06:04;101093.78;;;12.96;39.54
40490;BME280;26196;52.302;10.572;2023-04-27T04:10:38;101104.31;;;12.94;39.36
40490;BME280;26196;52.302;10.572;2023-04-27T04:14:39;101099.03;;;12.96;40.27
40490;BME280;26196;52.302;10.572;2023-04-27T04:18:39;101102.53;;;12.95;40.08
40490;BME280;26196;52.302;10.572;2023-04-27T04:22:40;101093.03;;;12.90;39.80
40490;BME280;26196;52.302;10.572;2023-04-27T04:26:40;101106.19;;;12.90;39.68
40490;BME280;26196;52.302;10.572;2023-04-27T04:31:14;101106.19;;;12.89;40.41
40490;BME280;26196;52.302;10.572;2023-04-27T04:35:51;101113.22;;;12.88;40.24
40490;BME280;26196;52.302;10.572;2023-04-27T04:40:26;101113.91;;;12.95;41.18
40490;BME280;26196;52.302;10.572;2023-04-27T04:44:26;101123.47;;;12.98;40.05
40490;BME280;26196;52.302;10.572;2023-04-27T04:49:04;101123.69;;;12.90;39.84
40490;BME280;26196;52.302;10.572;2023-04-27T04:53:38;101128.06;;;12.91;39.62
40490;BME280;26196;52.302;10.572;2023-04-27T04:58:16;101128.13;;;12.88;39.80
40490;BME280;26196;52.302;10.572;2023-04-27T05:02:50;101124.78;;;12.83;39.85
40490;BME280;26196;52.302;10.572;2023-04-27T05:07:25;101127.41;;;12.83;39.80
40490;BME280;26196;52.302;10.572;2023-04-27T05:12:03;101124.78;;;12.83;39.90
40490;BME280;26196;52.302;10.572;2023-04-27T05:16:04;101119.34;;;12.89;40.35
40490;BME280;26196;52.302;10.572;2023-04-27T05:20:07;101129.97;;;12.84;40.40
40490;BME280;26196;52.302;10.572;2023-04-27T05:24:09;101135.28;;;12.83;40.42
40490;BME280;26196;52.302;10.572;2023-04-27T05:28:10;101139.72;;;12.81;39.83
40490;BME280;26196;52.302;10.572;2023-04-27T05:32:10;101143.22;;;12.80;39.69
40490;BME280;26196;52.302;10.572;2023-04-27T05:36:48;101140.59;;;12.80;39.79
40490;BME280;26196;52.302;10.572;2023-04-27T05:41:22;101142.47;;;12.75;39.85
40490;BME280;26196;52.302;10.572;2023-04-27T05:45:22;101140.84;;;12.70;39.85
40490;BME280;26196;52.302;10.572;2023-04-27T05:49:23;101150.50;;;12.70;40.34
40490;BME280;26196;52.302;10.572;2023-04-27T05:53:23;101147.91;;;12.68;39.84
40490;BME280;26196;52.302;10.572;2023-04-27T06:02:38;101166.28;;;12.68;40.10
40490;BME280;26196;52.302;10.572;2023-04-27T06:06:38;101166.34;;;12.67;40.04
40490;BME280;26196;52.302;10.572;2023-04-27T06:11:16;101174.25;;;12.65;40.38
40490;BME280;26196;52.302;10.572;2023-04-27T06:15:19;101176.97;;;12.61;40.50
40490;BME280;26196;52.302;10.572;2023-04-27T06:19:20;101175.16;;;12.64;40.04
40490;BME280;26196;52.302;10.572;2023-04-27T06:23:20;101178.03;;;12.54;40.46
40490;BME280;26196;52.302;10.572;2023-04-27T06:27:55;101185.03;;;12.53;40.26
40490;BME280;26196;52.302;10.572;2023-04-27T06:31:55;101191.97;;;12.57;40.62
40490;BME280;26196;52.302;10.572;2023-04-27T06:35:56;101180.84;;;12.46;40.59
40490;BME280;26196;52.302;10.572;2023-04-27T06:39:56;101179.94;;;12.47;40.56
40490;BME280;26196;52.302;10.572;2023-04-27T06:44:30;101186.91;;;12.48;40.74
40490;BME280;26196;52.302;10.572;2023-04-27T06:48:31;101194.69;;;12.53;40.40
40490;BME280;26196;52.302;10.572;2023-04-27T06:53:05;101199.09;;;12.51;40.73
40490;BME280;26196;52.302;10.572;2023-04-27T06:57:05;101200.91;;;12.48;40.97
40490;BME280;26196;52.302;10.572;2023-04-27T07:01:06;101200.97;;;12.47;40.49
40490;BME280;26196;52.302;10.572;2023-04-27T07:05:06;101200.88;;;12.50;40.79
40490;BME280;26196;52.302;10.572;2023-04-27T07:09:44;101195.78;;;12.44;40.85
40490;BME280;26196;52.302;10.572;2023-04-27T07:14:18;101198.59;;;12.36;40.57
40490;BME280;26196;52.302;10.572;2023-04-27T07:18:19;101204.63;;;12.40;40.89
40490;BME280;26196;52.302;10.572;2023-04-27T07:22:53;101204.53;;;12.43;40.58
40490;BME280;26196;52.302;10.572;2023-04-27T07:26:54;101195.72;;;12.47;41.21
40490;BME280;26196;52.302;10.572;2023-04-27T07:31:30;101200.91;;;12.48;41.13
40490;BME280;26196;52.302;10.572;2023-04-27T07:35:32;101190.72;;;12.36;41.23
40490;BME280;26196;52.302;10.572;2023-04-27T07:39:33;101208.00;;;12.45;41.22
40490;BME280;26196;52.302;10.572;2023-04-27T07:44:10;101204.63;;;12.40;41.12
40490;BME280;26196;52.302;10.572;2023-04-27T07:48:11;101212.50;;;12.40;40.97
40490;BME280;26196;52.302;10.572;2023-04-27T07:52:46;101213.41;;;12.39;41.95
40490;BME280;26196;52.302;10.572;2023-04-27T07:56:46;101205.47;;;12.42;41.43
40490;BME280;26196;52.302;10.572;2023-04-27T08:01:23;101204.59;;;12.41;41.85
40490;BME280;26196;52.302;10.572;2023-04-27T08:05:23;101207.31;;;12.37;42.16
40490;BME280;26196;52.302;10.572;2023-04-27T08:14:01;101211.66;;;12.38;41.93
40490;BME280;26196;52.302;10.572;2023-04-27T08:18:02;101212.50;;;12.40;41.69
40490;BME280;26196;52.302;10.572;2023-04-27T08:22:37;101207.03;;;12.49;41.76
40490;BME280;26196;52.302;10.572;2023-04-27T08:26:37;101212.25;;;12.51;41.86
40490;BME280;26196;52.302;10.572;2023-04-27T08:30:42;101210.63;;;12.45;42.16
40490;BME280;26196;52.302;10.572;2023-04-27T08:34:43;101210.59;;;12.46;42.11
40490;BME280;26196;52.302;10.572;2023-04-27T08:38:45;101210.53;;;12.48;42.18
40490;BME280;26196;52.302;10.572;2023-04-27T08:42:54;101206.22;;;12.47;42.10
40490;BME280;26196;52.302;10.572;2023-04-27T08:46:55;101200.81;;;12.53;42.21
40490;BME280;26196;52.302;10.572;2023-04-27T08:50:57;101202.31;;;12.63;42.38
40490;BME280;26196;52.302;10.572;2023-04-27T08:55:33;101199.75;;;12.60;42.63
40490;BME280;26196;52.302;10.572;2023-04-27T08:59:33;101194.59;;;12.57;42.62
40490;BME280;26196;52.302;10.572;2023-04-27T09:03:37;101186.63;;;12.60;42.24
40490;BME280;26196;52.302;10.572;2023-04-27T09:08:11;101189.16;;;12.65;41.77
40490;BME280;26196;52.302;10.572;2023-04-27T09:12:19;101190.00;;;12.65;41.63
40490;BME280;26196;52.302;10.572;2023-04-27T09:16:55;101192.53;;;12.68;41.80
40490;BME280;26196;52.302;10.572;2023-04-27T09:21:29;101195.16;;;12.70;42.11
40490;BME280;26196;52.302;10.572;2023-04-27T09:25:32;101190.75;;;12.70;42.14
40490;BME280;26196;52.302;10.572;2023-04-27T09:29:36;101184.50;;;12.75;42.41
40490;BME280;26196;52.302;10.572;2023-04-27T09:34:13;101187.94;;;12.78;42.20
40490;BME280;26196;52.302;10.572;2023-04-27T09:38:14;101176.44;;;12.82;42.10
40490;BME280;26196;52.302;10.572;2023-04-27T09:42:51;101179.78;;;12.89;42.39
40490;BME280;26196;52.302;10.572;2023-04-27T09:52:01;101185.78;;;12.92;42.70
40490;BME280;26196;52.302;10.572;2023-04-27T09:56:19;101183.22;;;12.91;42.22
40490;BME280;26196;52.302;10.572;2023-04-27T10:05:29;101181.25;;;12.99;42.50
40490;BME280;26196;52.302;10.572;2023-04-27T10:09:45;101168.97;;;13.00;42.65
40490;BME280;26196;52.302;10.572;2023-04-27T10:14:15;101179.38;;;13.04;42.58
40490;BME280;26196;52.302;10.572;2023-04-27T10:18:28;101174.00;;;13.09;42.32
40490;BME280;26196;52.302;10.572;2023-04-27T10:22:44;101176.66;;;13.07;42.96
40490;BME280;26196;52.302;10.572;2023-04-27T10:26:46;101175.69;;;13.11;42.55
40490;BME280;26196;52.302;10.572;2023-04-27T10:31:26;101177.31;;;13.16;42.98
40490;BME280;26196;52.302;10.572;2023-04-27T10:35:38;101171.06;;;13.20;42.52
40490;BME280;26196;52.302;10.572;2023-04-27T10:39:42;101167.53;;;13.21;42.79
40490;BME280;26196;52.302;10.572;2023-04-27T10:48:58;101174.31;;;13.29;42.93
40490;BME280;26196;52.302;10.572;2023-04-27T10:57:44;101176.84;;;13.34;42.56
40490;BME280;26196;52.302;10.572;2023-04-27T11:01:47;101163.59;;;13.37;42.77
40490;BME280;26196;52.302;10.572;2023-04-27T11:05:58;101168.69;;;13.43;42.90
40490;BME280;26196;52.302;10.572;2023-04-27T11:09:59;101161.63;;;13.45;43.27
40490;BME280;26196;52.302;10.572;2023-04-27T11:14:34;101159.78;;;13.47;42.87
40490;BME280;26196;52.302;10.572;2023-04-27T11:18:37;101161.53;;;13.48;42.97
40490;BME280;26196;52.302;10.572;2023-04-27T11:23:21;101158.75;;;13.53;43.36
40490;BME280;26196;52.302;10.572;2023-04-27T11:27:22;101159.53;;;13.56;42.97
40490;BME280;26196;52.302;10.572;2023-04-27T11:31:25;101158.59;;;13.59;43.03
40490;BME280;26196;52.302;10.572;2023-04-27T11:36:00;101164.63;;;13.63;42.95
40490;BME280;26196;52.302;10.572;2023-04-27T11:40:00;101162.78;;;13.66;43.21
40490;BME280;26196;52.302;10.572;2023-04-27T11:44:08;101156.56;;;13.69;42.65
40490;BME280;26196;52.302;10.572;2023-04-27T11:48:15;101171.31;;;13.73;43.54
40490;BME280;26196;52.302;10.572;2023-04-27T11:52:50;101165.19;;;13.74;43.37
40490;BME280;26196;52.302;10.572;2023-04-27T11:57:26;101164.16;;;13.78;43.58
40490;BME280;26196;52.302;10.572;2023-04-27T12:02:00;101153.53;;;13.81;42.91
40490;BME280;26196;52.302;10.572;2023-04-27T12:06:01;101160.53;;;13.82;43.04
40490;BME280;26196;52.302;10.572;2023-04-27T12:19:26;101149.63;;;13.94;43.19
40490;BME280;26196;52.302;10.572;2023-04-27T12:24:01;101148.66;;;13.97;43.14
40490;BME280;26196;52.302;10.572;2023-04-27T12:37:50;101148.41;;;14.06;43.49
40490;BME280;26196;52.302;10.572;2023-04-27T12:42:25;101140.34;;;14.11;43.25
40490;BME280;26196;52.302;10.572;2023-04-27T12:47:00;101145.53;;;14.14;43.05
40490;BME280;26196;52.302;10.572;2023-04-27T12:55:58;101145.31;;;14.20;43.66
40490;BME280;26196;52.302;10.572;2023-04-27T13:00:35;101143.50;;;14.22;43.77
40490;BME280;26196;52.302;10.572;2023-04-27T13:04:35;101146.03;;;14.25;43.36
40490;BME280;26196;52.302;10.572;2023-04-27T13:08:36;101136.31;;;14.27;43.04
40490;BME280;26196;52.302;10.572;2023-04-27T13:12:37;101139.69;;;14.31;43.18
40490;BME280;26196;52.302;10.572;2023-04-27T13:17:11;101134.41;;;14.32;43.27
40490;BME280;26196;52.302;10.572;2023-04-27T13:21:12;101130.72;;;14.36;43.86
40490;BME280;26196;52.302;10.572;2023-04-27T13:25:13;101124.56;;;14.37;43.81
40490;BME280;26196;52.302;10.572;2023-04-27T13:29:16;101132.38;;;14.40;43.67
40490;BME280;26196;52.302;10.572;2023-04-27T13:33:50;101127.00;;;14.43;43.68
40490;BME280;26196;52.302;10.572;2023-04-27T13:38:27;101120.75;;;14.46;43.86
40490;BME280;26196;52.302;10.572;2023-04-27T13:43:01;101119.78;;;14.49;43.43
40490;BME280;26196;52.302;10.572;2023-04-27T13:47:39;101115.34;;;14.51;43.29
40490;BME280;26196;52.302;10.572;2023-04-27T13:52:16;101119.63;;;14.55;43.24
40490;BME280;26196;52.302;10.572;2023-04-27T13:56:17;101113.44;;;14.56;43.72
40490;BME280;26196;52.302;10.572;2023-04-27T14:00:18;101118.56;;;14.60;43.39
40490;BME280;26196;52.302;10.572;2023-04-27T14:04:18;101114.97;;;14.63;43.20
40490;BME280;26196;52.302;10.572;2023-04-27T14:12:56;101112.09;;;14.69;43.41
40490;BME280;26196;52.302;10.572;2023-04-27T14:17:33;101108.50;;;14.72;43.59
40490;BME280;26196;52.302;10.572;2023-04-27T14:26:11;101107.44;;;14.77;43.56
40490;BME280;26196;52.302;10.572;2023-04-27T14:30:48;101095.06;;;14.79;43.66
40490;BME280;26196;52.302;10.572;2023-04-27T14:35:23;101104.59;;;14.83;43.09
40490;BME280;26196;52.302;10.572;2023-04-27T14:39:59;101097.47;;;14.85;43.49
40490;BME280;26196;52.302;10.572;2023-04-27T14:43:59;101102.66;;;14.88;43.26
40490;BME280;26196;52.302;10.572;2023-04-27T14:48:37;101095.53;;;14.91;43.26
40490;BME280;26196;52.302;10.572;2023-04-27T14:53:14;101100.69;;;14.94;43.35
40490;BME280;26196;52.302;10.572;2023-04-27T15:01:52;101094.38;;;14.99;43.44
40490;BME280;26196;52.302;10.572;2023-04-27T15:06:29;101096.94;;;15.01;43.47
40490;BME280;26196;52.302;10.572;2023-04-27T15:15:39;101095.84;;;15.06;43.34
40490;BME280;26196;52.302;10.572;2023-04-27T15:19:39;101080.91;;;15.07;43.70
40490;BME280;26196;52.302;10.572;2023-04-27T15:23:39;101079.84;;;15.11;43.62
40490;BME280;26196;52.302;10.572;2023-04-27T15:27:40;101082.44;;;15.13;43.77
40490;BME280;26196;52.302;10.572;2023-04-27T15:31:40;101074.47;;;15.14;43.47
40490;BME280;26196;52.302;10.572;2023-04-27T15:36:18;101073.50;;;15.17;43.84
40490;BME280;26196;52.302;10.572;2023-04-27T15:40:55;101075.16;;;15.19;43.37
40490;BME280;26196;52.302;10.572;2023-04-27T15:44:57;101066.28;;;15.22;43.58
40490;BME280;26196;52.302;10.572;2023-04-27T15:49:30;101065.28;;;15.24;43.38
40490;BME280;26196;52.302;10.572;2023-04-27T15:54:05;101067.88;;;15.26;43.37
40490;BME280;26196;52.302;10.572;2023-04-27T15:58:42;101064.28;;;15.28;43.72
40490;BME280;26196;52.302;10.572;2023-04-27T16:02:43;101063.34;;;15.29;43.52
40490;BME280;26196;52.302;10.572;2023-04-27T16:07:17;101061.47;;;15.33;43.26
40490;BME280;26196;52.302;10.572;2023-04-27T16:11:18;101043.00;;;15.33;43.66
40490;BME280;26196;52.302;10.572;2023-04-27T16:15:52;101042.81;;;15.38;43.41
40490;BME280;26196;52.302;10.572;2023-04-27T16:20:30;101041.81;;;15.40;43.15
40490;BME280;26196;52.302;10.572;2023-04-27T16:25:04;101033.88;;;15.42;43.29
40490;BME280;26196;52.302;10.572;2023-04-27T16:29:40;101030.31;;;15.43;43.05
40490;BME280;26196;52.302;10.572;2023-04-27T16:34:17;101031.09;;;15.45;42.93
40490;BME280;26196;52.302;10.572;2023-04-27T16:38:55;101015.22;;;15.46;42.92
40490;BME280;26196;52.302;10.572;2023-04-27T16:48:04;101022.09;;;15.50;42.77
40490;BME280;26196;52.302;10.572;2023-04-27T16:52:05;101028.22;;;15.51;42.59
40490;BME280;26196;52.302;10.572;2023-04-27T16:56:40;101026.38;;;15.53;42.49
40490;BME280;26196;52.302;10.572;2023-04-27T17:00:40;101036.03;;;15.54;42.44
40490;BME280;26196;52.302;10.572;2023-04-27T17:04:41;101031.53;;;15.56;42.64
40490;BME280;26196;52.302;10.572;2023-04-27T17:09:15;101038.53;;;15.57;42.53
40490;BME280;26196;52.302;10.572;2023-04-27T17:13:16;101042.00;;;15.59;42.29
40490;BME280;26196;52.302;10.572;2023-04-27T17:17:16;101047.28;;;15.59;42.08
40490;BME280;26196;52.302;10.572;2023-04-27T17:25:54;101037.44;;;15.63;41.77
40490;BME280;26196;52.302;10.572;2023-04-27T17:30:31;101040.06;;;15.63;42.01
40490;BME280;26196;52.302;10.572;2023-04-27T17:34:32;101040.81;;;15.66;42.23
40490;BME280;26196;52.302;10.572;2023-04-27T17:39:10;101040.75;;;15.68;42.07
40490;BME280;26196;52.302;10.572;2023-04-27T17:53:05;101020.34;;;15.73;42.57
40490;BME280;26196;52.302;10.572;2023-04-27T17:57:43;101015.00;;;15.74;43.00
40490;BME280;26196;52.302;10.572;2023-04-27T18:02:20;101013.16;;;15.77;44.28
40490;BME280;26196;52.302;10.572;2023-04-27T18:11:17;101007.88;;;15.77;44.91
40490;BME280;26196;52.302;10.572;2023-04-27T18:15:18;100996.47;;;15.76;44.83
40490;BME280;26196;52.302;10.572;2023-04-27T18:19:52;101015.75;;;15.78;46.06
40490;BME280;26196;52.302;10.572;2023-04-27T18:24:27;101013.03;;;15.80;46.92
40490;BME280;26196;52.302;10.572;2023-04-27T18:38:19;101020.94;;;15.80;47.37
40490;BME280;26196;52.302;10.572;2023-04-27T18:42:53;101015.66;;;15.80;46.64
40490;BME280;26196;52.302;10.572;2023-04-27T18:47:30;101019.09;;;15.82;48.21
40490;BME280;26196;52.302;10.572;2023-04-27T18:52:05;101020.94;;;15.80;47.57
40490;BME280;26196;52.302;10.572;2023-04-27T18:56:10;101024.47;;;15.80;45.72
40490;BME280;26196;52.302;10.572;2023-04-27T19:00:45;101029.66;;;15.82;47.13
40490;BME280;26196;52.302;10.572;2023-04-27T19:04:45;101022.69;;;15.81;47.85
40490;BME280;26196;52.302;10.572;2023-04-27T19:08:58;101027.16;;;15.79;47.48
40490;BME280;26196;52.302;10.572;2023-04-27T19:12:58;101029.00;;;15.77;46.77
40490;BME280;26196;52.302;10.572;2023-04-27T19:17:32;101029.84;;;15.77;45.48
40490;BME280;26196;52.302;10.572;2023-04-27T19:22:08;101034.13;;;15.80;44.83
40490;BME280;26196;52.302;10.572;2023-04-27T19:26:45;101030.59;;;15.81;47.43
40490;BME280;26196;52.302;10.572;2023-04-27T19:31:20;101026.03;;;15.84;47.22
40490;BME280;26196;52.302;10.572;2023-04-27T19:40:35;101026.81;;;15.88;46.26
40490;BME280;26196;52.302;10.572;2023-04-27T19:45:10;101026.03;;;15.84;48.59
40490;BME280;26196;52.302;10.572;2023-04-27T19:54:07;101014.69;;;15.82;47.84
40490;BME280;26196;52.302;10.572;2023-04-27T20:03:15;101000.03;;;15.75;46.10
40490;BME280;26196;52.302;10.572;2023-04-27T20:07:16;101009.72;;;15.74;46.38
40490;BME280;26196;52.302;10.572;2023-04-27T20:11:16;101000.19;;;15.72;45.73
40490;BME280;26196;52.302;10.572;2023-04-27T20:15:51;101003.72;;;15.71;45.07
40490;BME280;26196;52.302;10.572;2023-04-27T20:19:52;101004.66;;;15.70;44.89
40490;BME280;26196;52.302;10.572;2023-04-27T20:24:27;101010.88;;;15.67;44.77
40490;BME280;26196;52.302;10.572;2023-04-27T20:28:28;101001.22;;;15.66;46.51
40490;BME280;26196;52.302;10.572;2023-04-27T20:33:05;101003.81;;;15.68;46.14
40490;BME280;26196;52.302;10.572;2023-04-27T20:37:05;101000.38;;;15.66;46.53
40490;BME280;26196;52.302;10.572;2023-04-27T20:41:06;101002.16;;;15.65;44.38
40490;BME280;26196;52.302;10.572;2023-04-27T20:45:08;101002.16;;;15.65;45.65
40490;BME280;26196;52.302;10.572;2023-04-27T20:49:10;101010.25;;;15.61;46.50
40490;BME280;26196;52.302;10.572;2023-04-27T20:53:44;101002.41;;;15.59;46.42
40490;BME280;26196;52.302;10.572;2023-04-27T20:58:22;100994.72;;;15.53;45.78
40490;BME280;26196;52.302;10.572;2023-04-27T21:02:22;101000.94;;;15.52;46.34
40490;BME280;26196;52.302;10.572;2023-04-27T21:06:22;101004.47;;;15.51;46.26
40490;BME280;26196;52.302;10.572;2023-04-27T21:10:23;101008.00;;;15.51;45.05
40490;BME280;26196;52.302;10.572;2023-04-27T21:14:23;101000.31;;;15.45;44.94
40490;BME280;26196;52.302;10.572;2023-04-27T21:18:57;101008.34;;;15.42;45.04
40490;BME280;26196;52.302;10.572;2023-04-27T21:22:58;101006.75;;;15.38;44.57
40490;BME280;26196;52.302;10.572;2023-04-27T21:26:58;100990.19;;;15.35;44.35
40490;BME280;26196;52.302;10.572;2023-04-27T21:35:35;100991.34;;;15.27;44.41
40490;BME280;26196;52.302;10.572;2023-04-27T21:39:36;100980.06;;;15.24;44.10
40490;BME280;26196;52.302;10.572;2023-04-27T21:43:36;100980.09;;;15.22;44.04
40490;BME280;26196;52.302;10.572;2023-04-27T21:47:40;100982.84;;;15.19;43.52
40490;BME280;26196;52.302;10.572;2023-04-27T21:51:41;100975.19;;;15.13;44.13
40490;BME280;26196;52.302;10.572;2023-04-27T21:55:41;100973.53;;;15.10;44.03
40490;BME280;26196;52.302;10.572;2023-04-27T22:00:17;100973.59;;;15.09;43.58
40490;BME280;26196;52.302;10.572;2023-04-27T22:04:18;100963.25;;;15.04;43.03
40490;BME280;26196;52.302;10.572;2023-04-27T22:08:19;100965.78;;;15.06;42.98
40490;BME280;26196;52.302;10.572;2023-04-27T22:12:20;100965.00;;;15.04;42.94
40490;BME280;26196;52.302;10.572;2023-04-27T22:16:21;100966.03;;;15.00;43.59
40490;BME280;26196;52.302;10.572;2023-04-27T22:20:55;100954.81;;;14.95;43.00
40490;BME280;26196;52.302;10.572;2023-04-27T22:24:57;100957.50;;;14.93;43.54
40490;BME280;26196;52.302;10.572;2023-04-27T22:28:57;100956.78;;;14.90;44.10
40490;BME280;26196;52.302;10.572;2023-04-27T22:32:57;100948.06;;;14.87;43.55
40490;BME280;26196;52.302;10.572;2023-04-27T22:36:58;100951.75;;;14.83;43.65
40490;BME280;26196;52.302;10.572;2023-04-27T22:40:58;100940.31;;;14.83;43.32
40490;BME280;26196;52.302;10.572;2023-04-27T22:45:32;100943.88;;;14.82;43.87
40490;BME280;26196;52.302;10.572;2023-04-27T22:49:33;100943.91;;;14.80;43.13
40490;BME280;26196;52.302;10.572;2023-04-27T22:53:35;100941.41;;;14.77;43.29
40490;BME280;26196;52.302;10.572;2023-04-27T22:58:10;100926.56;;;14.75;43.11
40490;BME280;26196;52.302;10.572;2023-04-27T23:02:10;100933.78;;;14.70;43.27
40490;BME280;26196;52.302;10.572;2023-04-27T23:06:12;100930.34;;;14.68;43.28
40490;BME280;26196;52.302;10.572;2023-04-27T23:14:46;100905.09;;;14.62;43.28
40490;BME280;26196;52.302;10.572;2023-04-27T23:18:46;100899.06;;;14.60;43.05
40490;BME280;26196;52.302;10.572;2023-04-27T23:22:47;100895.59;;;14.58;42.83
40490;BME280;26196;52.302;10.572;2023-04-27T23:26:48;100896.50;;;14.57;42.91
40490;BME280;26196;52.302;10.572;2023-04-27T23:30:52;100896.66;;;14.52;43.45
40490;BME280;26196;52.302;10.572;2023-04-27T23:34:53;100887.88;;;14.52;42.55
40490;BME280;26196;52.302;10.572;2023-04-27T23:39:28;100887.19;;;14.47;42.46
40490;BME280;26196;52.302;10.572;2023-04-27T23:43:28;100873.94;;;14.50;42.54
40490;BME280;26196;52.302;10.572;2023-04-27T23:47:29;100878.44;;;14.46;42.42
40490;BME280;26196;52.302;10.572;2023-04-27T23:51:29;100872.31;;;14.45;42.69
40490;BME280;26196;52.302;10.572;2023-04-27T23:56:04;100871.59;;;14.42;42.08
